sensor_id;sensor_type;location;lat;lon;timestamp;P1;P2;P0
43280;PMS5003;62175;49.416;8.690;2023-01-05T00:02:05;1;1;
43280;PMS5003;62175;49.416;8.690;2023-01-05T00:04:33;1;0;
43280;PMS5003;62175;49.416;8.690;2023-01-05T00:07:01;1;0;
43280;PMS5003;62175;49.416;8.690;2023-01-05T00:09:28;0;0;
43280;PMS5003;62175;49.416;8.690;2023-01-05T00:11:56;0;0;
43280;PMS5003;62175;49.416;8.690;2023-01-05T00:14:23;1;1;
43280;PMS5003;62175;49.416;8.690;2023-01-05T00:16:53;1;1;
43280;PMS5003;62175;49.416;8.690;2023-01-05T00:19:20;1;1;
43280;PMS5003;62175;49.416;8.690;2023-01-05T00:21:47;0;0;
43280;PMS5003;62175;49.416;8.690;2023-01-05T00:24:14;2;2;
43280;PMS5003;62175;49.416;8.690;2023-01-05T00:26:43;1;1;
43280;PMS5003;62175;49.416;8.690;2023-01-05T00:29:10;1;1;
43280;PMS5003;62175;49.416;8.690;2023-01-05T00:31:39;1;1;
43280;PMS5003;62175;49.416;8.690;2023-01-05T00:34:06;0;0;
43280;PMS5003;62175;49.416;8.690;2023-01-05T00:36:34;1;1;
43280;PMS5003;62175;49.416;8.690;2023-01-05T00:39:02;1;1;
43280;PMS5003;62175;49.416;8.690;2023-01-05T00:41:30;1;1;
43280;PMS5003;62175;49.416;8.690;2023-01-05T00:43:58;0;0;
43280;PMS5003;62175;49.416;8.690;2023-01-05T00:46:26;1;1;
43280;PMS5003;62175;49.416;8.690;2023-01-05T00:48:54;1;1;
43280;PMS5003;62175;49.416;8.690;2023-01-05T00:51:21;1;1;
43280;PMS5003;62175;49.416;8.690;2023-01-05T00:53:49;2;1;
43280;PMS5003;62175;49.416;8.690;2023-01-05T00:56:16;1;1;
43280;PMS5003;62175;49.416;8.690;2023-01-05T00:58:43;1;1;
43280;PMS5003;62175;49.416;8.690;2023-01-05T01:01:12;2;1;
43280;PMS5003;62175;49.416;8.690;2023-01-05T01:03:39;1;1;
43280;PMS5003;62175;49.416;8.690;2023-01-05T01:06:07;1;1;
43280;PMS5003;62175;49.416;8.690;2023-01-05T01:08:34;3;3;
43280;PMS5003;62175;49.416;8.690;2023-01-05T01:11:03;1;1;
43280;PMS5003;62175;49.416;8.690;2023-01-05T01:13:32;0;0;
43280;PMS5003;62175;49.416;8.690;2023-01-05T01:16:05;1;1;
43280;PMS5003;62175;49.416;8.690;2023-01-05T01:18:34;2;2;
43280;PMS5003;62175;49.416;8.690;2023-01-05T01:21:02;2;2;
43280;PMS5003;62175;49.416;8.690;2023-01-05T01:23:31;1;1;
43280;PMS5003;62175;49.416;8.690;2023-01-05T01:26:05;1;1;
43280;PMS5003;62175;49.416;8.690;2023-01-05T01:28:35;1;1;
43280;PMS5003;62175;49.416;8.690;2023-01-05T01:31:03;2;2;
43280;PMS5003;62175;49.416;8.690;2023-01-05T01:33:32;1;1;
43280;PMS5003;62175;49.416;8.690;2023-01-05T01:36:19;1;1;
43280;PMS5003;62175;49.416;8.690;2023-01-05T01:38:46;1;1;
43280;PMS5003;62175;49.416;8.690;2023-01-05T01:41:13;0;0;
43280;PMS5003;62175;49.416;8.690;2023-01-05T01:43:42;1;1;
43280;PMS5003;62175;49.416;8.690;2023-01-05T01:46:11;1;1;
43280;PMS5003;62175;49.416;8.690;2023-01-05T01:48:41;1;1;
43280;PMS5003;62175;49.416;8.690;2023-01-05T01:51:27;0;0;
43280;PMS5003;62175;49.416;8.690;2023-01-05T01:54:20;1;1;
43280;PMS5003;62175;49.416;8.690;2023-01-05T01:57:20;1;1;
43280;PMS5003;62175;49.416;8.690;2023-01-05T01:59:49;1;1;
43280;PMS5003;62175;49.416;8.690;2023-01-05T02:02:17;1;1;
43280;PMS5003;62175;49.416;8.690;2023-01-05T02:04:49;1;1;
43280;PMS5003;62175;49.416;8.690;2023-01-05T02:07:17;0;0;
43280;PMS5003;62175;49.416;8.690;2023-01-05T02:09:44;1;1;
43280;PMS5003;62175;49.416;8.690;2023-01-05T02:12:17;1;1;
43280;PMS5003;62175;49.416;8.690;2023-01-05T23:02:58;5;5;
43280;PMS5003;62175;49.416;8.690;2023-01-05T23:05:25;7;7;
43280;PMS5003;62175;49.416;8.690;2023-01-05T23:07:52;6;5;
43280;PMS5003;62175;49.416;8.690;2023-01-05T23:10:20;5;5;
43280;PMS5003;62175;49.416;8.690;2023-01-05T23:12:47;7;7;
43280;PMS5003;62175;49.416;8.690;2023-01-05T23:15:14;8;7;
43280;PMS5003;62175;49.416;8.690;2023-01-05T23:17:41;5;5;
43280;PMS5003;62175;49.416;8.690;2023-01-05T23:20:09;5;5;
43280;PMS5003;62175;49.416;8.690;2023-01-05T23:22:37;9;8;
43280;PMS5003;62175;49.416;8.690;2023-01-05T23:25:04;8;8;
43280;PMS5003;62175;49.416;8.690;2023-01-05T23:27:32;8;8;
43280;PMS5003;62175;49.416;8.690;2023-01-05T23:29:59;10;9;
43280;PMS5003;62175;49.416;8.690;2023-01-05T23:32:26;10;9;
43280;PMS5003;62175;49.416;8.690;2023-01-05T23:34:54;6;6;
43280;PMS5003;62175;49.416;8.690;2023-01-05T23:37:21;10;9;
43280;PMS5003;62175;49.416;8.690;2023-01-05T23:39:48;9;8;
43280;PMS5003;62175;49.416;8.690;2023-01-05T23:42:15;9;8;
43280;PMS5003;62175;49.416;8.690;2023-01-05T23:44:42;6;6;
43280;PMS5003;62175;49.416;8.690;2023-01-05T23:47:09;9;8;
43280;PMS5003;62175;49.416;8.690;2023-01-05T23:49:36;10;9;
43280;PMS5003;62175;49.416;8.690;2023-01-05T23:52:03;9;9;
43280;PMS5003;62175;49.416;8.690;2023-01-05T23:54:30;7;7;
43280;PMS5003;62175;49.416;8.690;2023-01-05T23:56:58;10;10;
43280;PMS5003;62175;49.416;8.690;2023-01-05T23:59:26;8;8;
